Time;durP1;ratioP1;P1;durP2;ratioP2;P2;SDS_P1;SDS_P2;PMS_P1;PMS_P2;Temp;Humidity;BMP_temperature;BMP_pressure;BME280_temperature;BME280_humidity;BME280_pressure;Samples;Min_cycle;Max_cycle;Signal;HPM_P1;HPM_P2
2023/12/02 00:00:16;;;;;;;88.50;56.30;;;;;;;-2.43;100.00;95273.05;108752;1273;25443;-79
2023/12/02 00:03:05;;;;;;;94.70;58.50;;;;;;;-2.43;100.00;95260.84;108810;1273;22532;-80
2023/12/02 00:05:35;;;;;;;95.60;60.40;;;;;;;-2.45;100.00;95262.26;108781;1269;24232;-80
2023/12/02 00:08:04;;;;;;;86.30;56.60;;;;;;;-2.47;100.00;95273.02;108718;1270;24205;-79
2023/12/02 00:10:35;;;;;;;92.80;56.70;;;;;;;-2.49;100.00;95280.77;108795;1266;25294;-80
2023/12/02 00:13:03;;;;;;;92.50;58.00;;;;;;;-2.49;100.00;95297.67;108764;1266;26557;-80
2023/12/02 00:15:32;;;;;;;90.90;57.10;;;;;;;-2.50;100.00;95308.71;108804;1269;22643;-80
2023/12/02 00:18:00;;;;;;;94.80;60.50;;;;;;;-2.50;100.00;95311.77;108726;1273;26486;-80
2023/12/02 00:20:28;;;;;;;98.40;61.00;;;;;;;-2.51;100.00;95312.34;108769;1273;22640;-80
2023/12/02 00:22:57;;;;;;;91.60;57.10;;;;;;;-2.51;100.00;95312.91;108780;1272;24954;-79
2023/12/02 00:25:26;;;;;;;94.40;57.40;;;;;;;-2.51;100.00;95317.11;108766;1273;22508;-79
2023/12/02 00:27:57;;;;;;;92.60;59.30;;;;;;;-2.51;100.00;95313.84;108767;1273;22498;-79
2023/12/02 00:30:25;;;;;;;95.40;60.20;;;;;;;-2.51;100.00;95310.41;108759;1273;23824;-79
2023/12/02 00:32:53;;;;;;;92.50;57.20;;;;;;;-2.51;100.00;95307.30;108764;1273;22516;-79
2023/12/02 00:35:22;;;;;;;88.30;54.40;;;;;;;-2.51;100.00;95319.14;108777;1273;22578;-80
2023/12/02 00:37:50;;;;;;;96.50;59.10;;;;;;;-2.50;100.00;95319.40;108772;1273;22567;-79
2023/12/02 00:40:19;;;;;;;86.90;53.40;;;;;;;-2.51;100.00;95320.42;108751;1266;22569;-79
2023/12/02 00:42:47;;;;;;;93.60;57.50;;;;;;;-2.52;100.00;95321.91;108814;1273;22533;-79
2023/12/02 00:45:20;;;;;;;90.30;55.00;;;;;;;-2.53;100.00;95319.41;108788;1269;22739;-80
2023/12/02 00:47:51;;;;;;;95.20;56.90;;;;;;;-2.53;100.00;95314.19;108776;1267;25484;-80
2023/12/02 00:50:22;;;;;;;95.70;57.70;;;;;;;-2.54;100.00;95299.70;108766;1273;24238;-80
2023/12/02 00:52:53;;;;;;;92.70;56.20;;;;;;;-2.54;100.00;95302.38;108780;1269;23894;-80
2023/12/02 00:55:22;;;;;;;84.30;52.00;;;;;;;-2.55;100.00;95317.20;108785;1250;22513;-80
2023/12/02 00:57:51;;;;;;;85.20;54.50;;;;;;;-2.55;100.00;95310.45;108744;1266;24044;-79
2023/12/02 01:00:20;;;;;;;85.30;52.70;;;;;;;-2.57;100.00;95296.80;108762;1266;22517;-80
2023/12/02 01:02:51;;;;;;;89.90;54.10;;;;;;;-2.58;100.00;95299.92;108755;1273;22521;-79
2023/12/02 01:05:19;;;;;;;93.70;58.30;;;;;;;-2.59;100.00;95311.17;108767;1272;22532;-79
2023/12/02 01:07:48;;;;;;;90.60;57.20;;;;;;;-2.59;100.00;95316.20;108829;1273;22516;-80
2023/12/02 01:10:19;;;;;;;88.70;53.90;;;;;;;-2.59;100.00;95299.23;108748;1273;24648;-79
2023/12/02 01:12:47;;;;;;;90.80;57.60;;;;;;;-2.61;100.00;95291.58;108766;1273;25243;-79
2023/12/02 01:15:15;;;;;;;98.70;61.30;;;;;;;-2.62;100.00;95294.91;108817;1267;22517;-79
2023/12/02 01:17:46;;;;;;;128.60;70.60;;;;;;;-2.62;100.00;95295.12;108753;1273;22565;-79
2023/12/02 01:20:15;;;;;;;110.30;66.70;;;;;;;-2.63;100.00;95291.85;108766;1272;25239;-80
2023/12/02 01:22:43;;;;;;;65.40;41.70;;;;;;;-2.62;100.00;95290.09;108747;1272;22591;-79
2023/12/02 01:25:11;;;;;;;94.80;55.50;;;;;;;-2.63;100.00;95290.17;108802;1272;22518;-79
2023/12/02 01:27:40;;;;;;;75.20;49.70;;;;;;;-2.64;100.00;95290.79;108817;1269;25522;-79
2023/12/02 01:30:16;;;;;;;79.20;50.30;;;;;;;-2.63;100.00;95287.48;108757;1273;22699;-79
2023/12/02 01:32:48;;;;;;;79.30;51.90;;;;;;;-2.63;100.00;95282.91;108742;1273;22566;-80
2023/12/02 01:35:17;;;;;;;77.60;51.80;;;;;;;-2.63;100.00;95275.24;108735;1269;24160;-79
2023/12/02 01:37:45;;;;;;;57.20;38.00;;;;;;;-2.63;100.00;95273.11;108792;1273;24418;-80
2023/12/02 01:40:16;;;;;;;56.30;36.00;;;;;;;-2.64;100.00;95273.23;108790;1273;22525;-79
2023/12/02 01:42:44;;;;;;;80.60;50.40;;;;;;;-2.65;100.00;95274.58;108772;1267;22513;-80
2023/12/02 01:45:12;;;;;;;75.60;49.00;;;;;;;-2.67;100.00;95274.89;108802;1269;22540;-78
2023/12/02 01:47:42;;;;;;;81.20;53.80;;;;;;;-2.69;100.00;95273.50;108786;1273;22510;-79
2023/12/02 01:50:13;;;;;;;86.40;56.40;;;;;;;-2.69;100.00;95276.66;108715;1267;24365;-79
2023/12/02 01:52:43;;;;;;;86.80;55.60;;;;;;;-2.69;100.00;95274.83;108817;1269;22548;-79
2023/12/02 01:55:11;;;;;;;82.90;51.80;;;;;;;-2.70;100.00;95250.59;108764;1272;22533;-79
2023/12/02 01:57:41;;;;;;;83.30;52.80;;;;;;;-2.72;100.00;95238.58;108749;1273;24195;-78
2023/12/02 02:00:16;;;;;;;86.80;54.50;;;;;;;-2.73;100.00;95263.56;108773;1273;22512;-79
2023/12/02 02:02:45;;;;;;;82.40;52.00;;;;;;;-2.74;100.00;95267.18;108769;1271;22543;-79
2023/12/02 02:05:16;;;;;;;79.60;50.90;;;;;;;-2.74;100.00;95276.88;108752;1269;25033;-79
2023/12/02 02:07:44;;;;;;;75.50;47.10;;;;;;;-2.74;100.00;95271.73;108758;1269;22919;-79
2023/12/02 02:10:13;;;;;;;80.10;51.00;;;;;;;-2.75;100.00;95256.04;108751;1273;22566;-79
2023/12/02 02:12:42;;;;;;;82.00;52.30;;;;;;;-2.77;100.00;95256.99;108789;1272;22671;-79
2023/12/02 02:15:11;;;;;;;80.20;51.40;;;;;;;-2.79;100.00;95248.94;108761;1273;26437;-79
2023/12/02 02:17:42;;;;;;;80.60;51.70;;;;;;;-2.80;100.00;95243.05;108742;1266;23858;-78
2023/12/02 02:20:14;;;;;;;79.10;48.90;;;;;;;-2.80;100.00;95233.80;108768;1273;25428;-79
2023/12/02 02:22:44;;;;;;;74.40;48.50;;;;;;;-2.81;100.00;95227.47;108759;1273;22479;-79
2023/12/02 02:25:12;;;;;;;66.80;44.30;;;;;;;-2.80;100.00;95239.94;108791;1273;24209;-78
2023/12/02 02:27:41;;;;;;;74.10;49.70;;;;;;;-2.80;100.00;95236.55;108778;1266;22541;-79
2023/12/02 02:30:13;;;;;;;75.70;48.90;;;;;;;-2.82;100.00;95226.27;108767;1273;22772;-79
2023/12/02 02:32:41;;;;;;;74.80;48.30;;;;;;;-2.82;100.00;95225.95;108797;1273;22517;-79
2023/12/02 02:35:10;;;;;;;42.80;28.30;;;;;;;-2.82;100.00;95225.15;108789;1266;22541;-79
2023/12/02 02:37:41;;;;;;;66.00;45.30;;;;;;;-2.82;100.00;95226.04;108743;1273;26134;-79
2023/12/02 02:40:13;;;;;;;69.00;45.20;;;;;;;-2.81;100.00;95220.10;108739;1269;22693;-79
2023/12/02 02:42:42;;;;;;;66.30;42.70;;;;;;;-2.82;100.00;95213.66;108776;1272;22528;-79
2023/12/02 02:45:11;;;;;;;65.00;44.80;;;;;;;-2.84;100.00;95209.95;108780;1266;22548;-79
2023/12/02 02:47:42;;;;;;;63.90;42.30;;;;;;;-2.85;100.00;95203.15;108752;1266;22647;-79
2023/12/02 02:50:13;;;;;;;58.60;41.30;;;;;;;-2.86;100.00;95201.77;108760;1272;25354;-79
2023/12/02 02:52:43;;;;;;;62.80;41.10;;;;;;;-2.86;100.00;95199.44;108780;1272;22520;-79
2023/12/02 02:55:12;;;;;;;61.50;40.90;;;;;;;-2.88;100.00;95197.12;108800;1272;22512;-79
2023/12/02 02:57:40;;;;;;;61.50;39.00;;;;;;;-2.88;100.00;95205.77;108722;1272;25239;-78
2023/12/02 03:00:12;;;;;;;57.80;39.30;;;;;;;-2.90;100.00;95207.20;108751;1273;25403;-79
2023/12/02 03:02:41;;;;;;;58.10;38.30;;;;;;;-2.90;100.00;95200.10;108787;1266;24192;-79
2023/12/02 03:05:14;;;;;;;55.70;38.70;;;;;;;-2.90;100.00;95203.61;108797;1273;26577;-79
2023/12/02 03:07:43;;;;;;;58.70;38.10;;;;;;;-2.90;100.00;95199.20;108777;1273;25984;-78
2023/12/02 03:10:14;;;;;;;54.30;37.20;;;;;;;-2.90;100.00;95200.70;108664;1270;166553;-79
2023/12/02 03:12:42;;;;;;;50.30;36.30;;;;;;;-2.92;100.00;95200.95;108772;1273;22546;-79
2023/12/02 03:15:12;;;;;;;52.90;35.20;;;;;;;-2.93;100.00;95201.80;108795;1269;23837;-78
2023/12/02 03:17:41;;;;;;;52.80;34.80;;;;;;;-2.94;100.00;95188.30;108781;1273;22891;-78
2023/12/02 03:20:13;;;;;;;57.50;36.60;;;;;;;-2.95;100.00;95173.97;108829;1273;25188;-78
2023/12/02 03:22:41;;;;;;;54.10;36.00;;;;;;;-2.97;100.00;95185.15;108785;1273;22539;-79
2023/12/02 03:25:11;;;;;;;54.10;34.00;;;;;;;-2.97;100.00;95204.49;108791;1266;22617;-78
2023/12/02 03:27:40;;;;;;;52.90;35.00;;;;;;;-2.96;100.00;95206.23;108751;1267;22518;-78
2023/12/02 03:30:11;;;;;;;52.80;36.80;;;;;;;-2.95;100.00;95212.58;108761;1273;22533;-79
2023/12/02 03:32:39;;;;;;;54.70;36.00;;;;;;;-2.95;100.00;95208.86;108831;1269;22543;-79
2023/12/02 03:35:09;;;;;;;56.00;35.50;;;;;;;-2.95;100.00;95214.89;108781;1273;22526;-79
2023/12/02 03:37:38;;;;;;;49.80;33.30;;;;;;;-2.94;100.00;95209.81;108778;1270;22798;-78
2023/12/02 03:40:10;;;;;;;51.70;34.30;;;;;;;-2.95;100.00;95217.20;108783;1272;22626;-78
2023/12/02 03:42:38;;;;;;;49.70;33.20;;;;;;;-2.95;100.00;95213.89;108801;1267;22554;-79
2023/12/02 03:45:08;;;;;;;40.00;26.30;;;;;;;-2.95;100.00;95208.51;108780;1273;24459;-79
2023/12/02 03:47:38;;;;;;;53.00;33.80;;;;;;;-2.95;100.00;95206.04;108798;1266;23757;-78
2023/12/02 03:50:09;;;;;;;49.70;34.40;;;;;;;-2.99;100.00;95192.75;108804;1271;22521;-79
2023/12/02 03:52:39;;;;;;;53.00;35.10;;;;;;;-3.01;100.00;95202.41;108800;1273;23749;-78
2023/12/02 03:55:11;;;;;;;48.10;33.10;;;;;;;-3.01;100.00;95206.80;108786;1273;23845;-78
2023/12/02 03:57:42;;;;;;;53.80;34.80;;;;;;;-3.02;100.00;95216.27;108758;1273;22523;-78
2023/12/02 04:00:12;;;;;;;50.00;33.10;;;;;;;-3.02;100.00;95205.59;108763;1267;22536;-79
2023/12/02 04:02:44;;;;;;;48.30;33.70;;;;;;;-3.03;100.00;95208.59;108771;1266;22520;-79
2023/12/02 04:05:13;;;;;;;45.20;30.00;;;;;;;-3.02;100.00;95217.00;108775;1273;23882;-79
2023/12/02 04:07:41;;;;;;;50.20;34.10;;;;;;;-3.03;100.00;95194.28;108752;1266;22983;-78
2023/12/02 04:10:11;;;;;;;46.70;31.50;;;;;;;-3.03;100.00;95185.15;108757;1273;25400;-79
2023/12/02 04:12:38;;;;;;;;;;;;;;;-3.04;100.00;95181.81;108800;1273;25275;-79
2023/12/02 04:15:08;;;;;;;50.30;31.80;;;;;;;-3.05;100.00;95183.98;108740;1252;22514;-79
2023/12/02 04:17:37;;;;;;;44.10;29.00;;;;;;;-3.06;100.00;95195.93;108819;1273;22517;-78
2023/12/02 04:20:14;;;;;;;45.50;30.90;;;;;;;-3.06;100.00;95191.98;108777;1273;22521;-79
2023/12/02 04:22:43;;;;;;;46.70;30.50;;;;;;;-3.06;100.00;95185.61;108812;1262;22605;-79
2023/12/02 04:25:15;;;;;;;44.40;29.30;;;;;;;-3.07;100.00;95184.35;108769;1273;22528;-79
2023/12/02 04:27:43;;;;;;;40.20;27.30;;;;;;;-3.08;100.00;95195.17;108771;1273;22522;-78
2023/12/02 04:30:15;;;;;;;44.20;28.90;;;;;;;-3.09;100.00;95193.08;108754;1272;22685;-79
2023/12/02 04:32:43;;;;;;;42.60;28.10;;;;;;;-3.10;100.00;95189.05;108761;1273;22594;-79
2023/12/02 04:35:19;;;;;;;40.00;26.80;;;;;;;-3.11;100.00;95186.48;108800;1273;22568;-79
2023/12/02 04:37:47;;;;;;;39.20;27.80;;;;;;;-3.13;100.00;95181.92;108710;1273;22521;-78
2023/12/02 04:40:17;;;;;;;37.40;25.80;;;;;;;-3.13;100.00;95186.75;108738;1272;22603;-79
2023/12/02 04:42:46;;;;;;;37.60;25.90;;;;;;;-3.13;100.00;95183.90;108783;1265;25368;-79
2023/12/02 04:45:15;;;;;;;38.00;25.60;;;;;;;-3.15;100.00;95181.11;108758;1266;22633;-79
2023/12/02 04:47:43;;;;;;;38.60;24.30;;;;;;;-3.16;100.00;95190.64;108753;1272;22521;-79
2023/12/02 04:50:14;;;;;;;34.50;23.90;;;;;;;-3.16;100.00;95195.20;108757;1273;25904;-79
2023/12/02 04:52:43;;;;;;;39.00;26.00;;;;;;;-3.17;100.00;95192.53;108745;1273;25197;-79
2023/12/02 04:55:11;;;;;;;45.10;29.10;;;;;;;-3.17;100.00;95191.14;108787;1273;22513;-79
2023/12/02 04:57:42;;;;;;;40.40;29.60;;;;;;;-3.17;100.00;95192.89;108700;1266;22710;-78
2023/12/02 05:00:23;;;;;;;55.90;35.00;;;;;;;-3.17;100.00;95190.10;108785;1273;22527;-80
2023/12/02 05:02:54;;;;;;;37.90;27.00;;;;;;;-3.16;100.00;95194.04;108750;1273;22513;-79
2023/12/02 05:05:23;;;;;;;36.40;24.10;;;;;;;-3.17;100.00;95195.17;108752;1273;22781;-80
2023/12/02 05:07:51;;;;;;;36.70;24.40;;;;;;;-3.17;100.00;95196.46;108795;1272;22543;-79
2023/12/02 05:10:20;;;;;;;36.90;24.10;;;;;;;-3.19;100.00;95192.80;108769;1272;22513;-79
2023/12/02 05:12:48;;;;;;;34.40;22.70;;;;;;;-3.19;100.00;95189.84;108770;1272;22547;-80
2023/12/02 05:15:19;;;;;;;34.00;22.10;;;;;;;-3.20;100.00;95190.97;108781;1267;22988;-80
2023/12/02 05:17:47;;;;;;;32.10;22.10;;;;;;;-3.19;100.00;95191.46;108765;1273;22529;-80
2023/12/02 05:20:17;;;;;;;33.40;23.40;;;;;;;-3.18;100.00;95198.73;108805;1273;23132;-80
2023/12/02 05:22:48;;;;;;;31.70;21.50;;;;;;;-3.18;100.00;95194.42;108788;1273;24291;-80
2023/12/02 05:25:16;;;;;;;33.20;22.40;;;;;;;-3.18;100.00;95184.42;108802;1273;22640;-79
2023/12/02 05:27:44;;;;;;;32.50;22.60;;;;;;;-3.18;100.00;95180.48;108772;1270;22525;-79
2023/12/02 05:30:14;;;;;;;30.80;22.10;;;;;;;-3.19;100.00;95184.30;108787;1273;25017;-79
2023/12/02 05:32:43;;;;;;;28.00;19.00;;;;;;;-3.20;100.00;95198.31;108747;1273;26473;-79
2023/12/02 05:35:12;;;;;;;27.40;19.20;;;;;;;-3.21;100.00;95199.19;108792;1273;22664;-80
2023/12/02 05:37:43;;;;;;;26.20;18.70;;;;;;;-3.21;100.00;95198.67;108772;1273;23846;-79
2023/12/02 05:40:12;;;;;;;28.70;19.60;;;;;;;-3.21;100.00;95189.50;108719;1274;22524;-79
2023/12/02 05:42:43;;;;;;;28.20;19.00;;;;;;;-3.21;100.00;95184.16;108802;1273;22548;-80
2023/12/02 05:45:12;;;;;;;26.40;18.80;;;;;;;-3.20;100.00;95179.31;108771;1273;22553;-79
2023/12/02 05:47:41;;;;;;;27.70;18.50;;;;;;;-3.21;100.00;95173.08;108815;1273;22546;-79
2023/12/02 05:50:10;;;;;;;27.60;19.10;;;;;;;-3.20;100.00;95175.45;108752;1272;22615;-79
2023/12/02 05:52:41;;;;;;;33.50;20.90;;;;;;;-3.20;100.00;95171.95;108754;1255;23171;-79
2023/12/02 05:55:10;;;;;;;28.80;20.40;;;;;;;-3.21;100.00;95172.17;108786;1273;22547;-79
2023/12/02 05:57:39;;;;;;;38.40;24.30;;;;;;;-3.23;100.00;95170.56;108779;1272;22550;-79
2023/12/02 06:00:09;;;;;;;33.90;20.50;;;;;;;-3.23;100.00;95174.36;108723;1272;22521;-80
2023/12/02 06:02:38;;;;;;;36.40;21.90;;;;;;;-3.24;100.00;95174.60;108804;1273;22751;-80
2023/12/02 06:05:08;;;;;;;30.60;20.30;;;;;;;-3.25;100.00;95169.02;108766;1273;22513;-80
2023/12/02 06:07:38;;;;;;;30.30;19.30;;;;;;;-3.24;100.00;95167.34;108831;1273;22780;-79
2023/12/02 06:10:09;;;;;;;32.20;23.60;;;;;;;-3.24;100.00;95165.66;108765;1273;22562;-79
2023/12/02 06:12:37;;;;;;;42.40;28.60;;;;;;;-3.24;100.00;95167.36;108807;1273;22520;-79
2023/12/02 06:15:10;;;;;;;40.80;25.00;;;;;;;-3.25;100.00;95167.25;108778;1273;22513;-80
2023/12/02 06:17:39;;;;;;;30.50;19.10;;;;;;;-3.26;100.00;95159.45;108783;1273;22553;-79
2023/12/02 06:20:11;;;;;;;29.60;19.80;;;;;;;-3.27;100.00;95156.59;108782;1273;27007;-79
2023/12/02 06:22:40;;;;;;;25.50;18.00;;;;;;;-3.29;100.00;95152.32;108777;1273;25504;-79
2023/12/02 06:25:09;;;;;;;27.80;19.20;;;;;;;-3.29;100.00;95145.98;108784;1273;22559;-79
2023/12/02 06:27:38;;;;;;;25.70;18.10;;;;;;;-3.30;100.00;95145.25;108762;1273;22517;-79
2023/12/02 06:30:11;;;;;;;24.90;16.90;;;;;;;-3.30;100.00;95140.00;108754;1272;22536;-79
2023/12/02 06:32:40;;;;;;;26.80;18.60;;;;;;;-3.30;100.00;95142.34;108786;1273;22537;-79
2023/12/02 06:35:10;;;;;;;20.30;13.00;;;;;;;-3.30;100.00;95144.89;108772;1273;24209;-79
2023/12/02 06:37:40;;;;;;;25.10;16.50;;;;;;;-3.31;100.00;95152.57;108779;1273;26753;-79
2023/12/02 06:40:23;;;;;;;26.70;17.10;;;;;;;-3.33;100.00;95139.58;108757;1273;22523;-79
2023/12/02 06:42:54;;;;;;;24.20;16.90;;;;;;;-3.33;100.00;95145.96;108763;1274;23813;-79
2023/12/02 06:45:23;;;;;;;25.80;16.60;;;;;;;-3.34;100.00;95157.40;108803;1269;22528;-79
2023/12/02 06:47:51;;;;;;;24.70;16.70;;;;;;;-3.33;100.00;95159.43;108738;1273;26837;-80
2023/12/02 06:50:21;;;;;;;25.30;17.20;;;;;;;-3.36;100.00;95158.70;108744;1273;22512;-79
2023/12/02 06:52:51;;;;;;;23.90;16.90;;;;;;;-3.35;100.00;95157.90;108754;1273;22749;-79
2023/12/02 06:55:19;;;;;;;35.60;22.80;;;;;;;-3.34;100.00;95156.93;108802;1273;22653;-80
2023/12/02 06:57:48;;;;;;;143.20;68.40;;;;;;;-3.34;100.00;95145.21;108734;1273;22553;-79
2023/12/02 07:00:20;;;;;;;80.90;41.70;;;;;;;-3.34;100.00;95129.20;108795;1273;22563;-79
2023/12/02 07:02:49;;;;;;;32.00;21.00;;;;;;;-3.35;100.00;95132.39;108771;1273;22541;-79
2023/12/02 07:05:20;;;;;;;34.30;27.40;;;;;;;-3.35;100.00;95132.28;108781;1273;22527;-79
2023/12/02 07:07:49;;;;;;;27.90;20.60;;;;;;;-3.35;100.00;95136.74;108756;1273;25264;-79
2023/12/02 07:10:22;;;;;;;25.70;19.40;;;;;;;-3.36;100.00;95128.66;108753;1273;22514;-79
2023/12/02 07:12:52;;;;;;;25.10;17.70;;;;;;;-3.35;100.00;95116.73;108789;1273;23024;-79
2023/12/02 07:15:21;;;;;;;23.90;16.10;;;;;;;-3.36;100.00;95114.44;108810;1273;22531;-79
2023/12/02 07:17:51;;;;;;;21.80;15.30;;;;;;;-3.36;100.00;95115.95;108763;1273;25406;-79
2023/12/02 07:20:25;;;;;;;21.10;15.20;;;;;;;-3.37;100.00;95120.80;108797;1263;25297;-79
2023/12/02 07:22:54;;;;;;;22.10;15.80;;;;;;;-3.38;100.00;95122.98;108852;1273;22521;-79
2023/12/02 07:25:25;;;;;;;24.00;17.00;;;;;;;-3.37;100.00;95103.81;108788;1269;22508;-79
2023/12/02 07:27:56;;;;;;;22.00;14.60;;;;;;;-3.37;100.00;95109.36;108791;1272;22543;-79
2023/12/02 07:30:27;;;;;;;22.40;13.70;;;;;;;-3.38;100.00;95121.77;108798;1261;22629;-80
2023/12/02 07:32:57;;;;;;;21.30;14.60;;;;;;;-3.40;100.00;95118.60;108839;1269;22515;-80
2023/12/02 07:35:28;;;;;;;19.80;14.30;;;;;;;-3.39;100.00;95120.33;108799;1273;23240;-79
2023/12/02 07:37:59;;;;;;;22.60;14.60;;;;;;;-3.39;100.00;95121.84;108759;1273;22899;-79
2023/12/02 07:40:29;;;;;;;23.50;15.70;;;;;;;-3.38;100.00;95121.72;108789;1273;22619;-80
2023/12/02 07:42:58;;;;;;;22.50;15.20;;;;;;;-3.36;100.00;95135.29;108795;1273;22569;-79
2023/12/02 07:45:29;;;;;;;22.20;14.40;;;;;;;-3.35;100.00;95119.91;108767;1273;25939;-80
2023/12/02 07:47:57;;;;;;;22.10;15.30;;;;;;;-3.34;100.00;95156.65;108729;1273;22641;-79
2023/12/02 07:50:28;;;;;;;23.60;15.50;;;;;;;-3.35;100.00;95153.33;108753;1273;26552;-79
2023/12/02 07:52:57;;;;;;;24.40;16.80;;;;;;;-3.36;100.00;95155.61;108764;1274;24256;-79
2023/12/02 07:55:25;;;;;;;21.70;14.80;;;;;;;-3.36;100.00;95154.48;108872;1273;22518;-80
2023/12/02 07:57:56;;;;;;;22.10;14.80;;;;;;;-3.35;100.00;95155.87;108750;1273;22676;-79
2023/12/02 08:00:26;;;;;;;24.10;16.80;;;;;;;-3.34;100.00;95155.38;108762;1273;23155;-80
2023/12/02 08:02:57;;;;;;;23.00;15.30;;;;;;;-3.33;100.00;95138.85;108773;1273;22550;-79
2023/12/02 08:05:26;;;;;;;23.40;16.20;;;;;;;-3.32;100.00;95144.37;108771;1273;22547;-79
2023/12/02 08:07:57;;;;;;;22.20;15.90;;;;;;;-3.32;100.00;95157.52;108765;1269;22846;-79
2023/12/02 08:10:25;;;;;;;24.30;16.60;;;;;;;-3.31;100.00;95151.80;108781;1273;22550;-80
2023/12/02 08:12:54;;;;;;;22.10;15.40;;;;;;;-3.29;100.00;95155.00;108811;1273;24117;-80
2023/12/02 08:15:25;;;;;;;22.30;14.90;;;;;;;-3.27;100.00;95155.77;108847;1273;23846;-80
2023/12/02 08:17:54;;;;;;;21.40;15.60;;;;;;;-3.25;100.00;95155.27;108772;1273;23828;-80
2023/12/02 08:20:24;;;;;;;22.90;15.20;;;;;;;-3.23;100.00;95153.10;108779;1273;22539;-80
2023/12/02 08:22:53;;;;;;;24.30;16.40;;;;;;;-3.21;100.00;95163.48;108730;1270;22991;-80
2023/12/02 08:25:22;;;;;;;40.70;25.20;;;;;;;-3.19;100.00;95166.35;108778;1267;22553;-80
2023/12/02 08:27:51;;;;;;;31.30;22.00;;;;;;;-3.17;100.00;95168.94;108783;1270;22520;-80
2023/12/02 08:30:20;;;;;;;35.20;25.10;;;;;;;-3.15;100.00;95177.91;108785;1273;22552;-80
2023/12/02 08:32:49;;;;;;;28.20;19.70;;;;;;;-3.11;100.00;95181.97;108781;1273;24292;-80
2023/12/02 08:35:18;;;;;;;28.90;21.90;;;;;;;-3.10;100.00;95181.41;108775;1273;22531;-81
2023/12/02 08:37:49;;;;;;;24.50;18.70;;;;;;;-3.11;100.00;95179.98;108762;1273;22776;-81
2023/12/02 08:40:18;;;;;;;27.20;18.40;;;;;;;-3.13;100.00;95175.08;108790;1271;25538;-80
2023/12/02 08:42:46;;;;;;;26.30;18.70;;;;;;;-3.15;100.00;95172.72;108789;1273;22521;-80
2023/12/02 08:45:16;;;;;;;24.70;18.50;;;;;;;-3.15;100.00;95178.77;108814;1273;22517;-80
2023/12/02 08:47:48;;;;;;;23.80;17.10;;;;;;;-3.12;100.00;95183.23;108687;1273;25434;-80
2023/12/02 08:50:16;;;;;;;23.10;16.80;;;;;;;-3.11;100.00;95188.23;108769;1273;25979;-80
2023/12/02 08:52:46;;;;;;;27.30;17.70;;;;;;;-3.10;100.00;95188.94;108794;1273;22630;-80
2023/12/02 08:55:16;;;;;;;23.50;16.30;;;;;;;-3.10;100.00;95172.15;108807;1273;22663;-80
2023/12/02 08:57:45;;;;;;;26.10;17.60;;;;;;;-3.10;100.00;95174.39;108723;1273;22540;-80
2023/12/02 09:00:19;;;;;;;24.60;16.30;;;;;;;-3.13;100.00;95171.73;108793;1273;22612;-80
2023/12/02 09:02:50;;;;;;;23.30;16.10;;;;;;;-3.14;100.00;95162.30;108827;1273;22642;-80
2023/12/02 09:05:19;;;;;;;27.20;17.80;;;;;;;-3.18;100.00;95170.63;108785;1273;22521;-80
2023/12/02 09:07:48;;;;;;;27.60;16.90;;;;;;;-3.21;100.00;95163.99;108758;1273;22516;-80
2023/12/02 09:10:17;;;;;;;29.20;18.80;;;;;;;-3.21;99.99;95149.13;108802;1273;22520;-80
2023/12/02 09:12:46;;;;;;;24.90;17.30;;;;;;;-3.18;100.00;95145.28;108751;1270;22596;-80
2023/12/02 09:15:45;;;;;;;28.20;17.90;;;;;;;-3.18;100.00;95142.38;108796;1250;22484;-80
2023/12/02 09:18:14;;;;;;;30.40;19.70;;;;;;;-3.18;99.97;95146.47;108753;1273;24220;-80
2023/12/02 09:20:50;;;;;;;29.10;18.80;;;;;;;-3.17;100.00;95149.96;108737;1270;22521;-80
2023/12/02 09:23:23;;;;;;;27.40;19.30;;;;;;;-3.16;100.00;95161.70;108839;1273;22562;-81
2023/12/02 09:25:58;;;;;;;29.10;20.60;;;;;;;-3.17;99.98;95170.96;108784;1270;24218;-80
2023/12/02 09:28:29;;;;;;;30.30;19.90;;;;;;;-3.17;100.00;95174.39;108763;1269;22550;-80
2023/12/02 09:31:03;;;;;;;28.10;19.20;;;;;;;-3.14;100.00;95182.00;108760;1273;22532;-81
2023/12/02 09:33:32;;;;;;;27.00;18.50;;;;;;;-3.13;100.00;95179.80;108786;1267;22527;-81
2023/12/02 09:36:02;;;;;;;28.80;19.70;;;;;;;-3.10;100.00;95162.34;108767;1273;22621;-81
2023/12/02 09:38:33;;;;;;;29.40;19.40;;;;;;;-3.11;100.00;95152.98;108801;1273;22518;-81
2023/12/02 09:41:25;;;;;;;29.00;21.00;;;;;;;-3.10;100.00;95153.92;108783;1273;22682;-80
2023/12/02 09:44:19;;;;;;;29.10;19.50;;;;;;;-3.10;100.00;95155.39;108820;1267;26097;-81
2023/12/02 09:46:58;;;;;;;30.90;20.90;;;;;;;-3.09;100.00;95155.02;108803;1267;22534;-81
2023/12/02 09:50:05;;;;;;;32.00;20.00;;;;;;;-3.05;99.99;95146.14;108807;1259;22517;-81
2023/12/02 09:52:48;;;;;;;28.60;19.30;;;;;;;-3.07;99.97;95142.30;108806;1273;22517;-81
2023/12/02 09:55:26;;;;;;;29.40;19.30;;;;;;;-3.06;99.93;95139.30;108833;1265;22503;-81
2023/12/02 09:58:04;;;;;;;38.10;25.70;;;;;;;-3.09;99.95;95142.64;108719;1273;23269;-81
2023/12/02 10:00:44;;;;;;;41.70;27.70;;;;;;;-3.10;99.96;95150.21;108813;1273;22561;-81
2023/12/02 10:03:31;;;;;;;35.40;24.80;;;;;;;-3.11;99.97;95159.36;108786;1258;22559;-81
2023/12/02 10:06:10;;;;;;;34.40;25.40;;;;;;;-3.11;99.90;95138.47;108746;1273;22547;-81
2023/12/02 10:08:55;;;;;;;31.30;23.90;;;;;;;-3.11;99.94;95120.48;108755;1273;22629;-81
2023/12/02 10:11:31;;;;;;;33.90;23.40;;;;;;;-3.13;99.87;95129.57;108827;1250;22531;-81
2023/12/02 10:14:08;;;;;;;35.50;23.50;;;;;;;-3.14;99.98;95126.91;108752;1273;22514;-80
2023/12/02 10:16:43;;;;;;;34.00;23.50;;;;;;;-3.13;99.91;95132.88;108806;1267;22520;-81
2023/12/02 10:19:20;;;;;;;31.20;22.60;;;;;;;-3.14;99.90;95149.30;108782;1267;22899;-80
2023/12/02 10:21:54;;;;;;;34.40;22.20;;;;;;;-3.14;99.87;95146.30;108802;1267;22517;-81
2023/12/02 10:24:32;;;;;;;31.60;22.00;;;;;;;-3.11;99.97;95137.27;108795;1273;22562;-80
2023/12/02 10:27:09;;;;;;;35.50;23.30;;;;;;;-3.09;99.98;95134.81;108808;1250;22528;-80
2023/12/02 10:29:49;;;;;;;34.40;22.90;;;;;;;-3.06;99.98;95135.39;108709;1273;23921;-81
2023/12/02 10:32:30;;;;;;;37.00;23.10;;;;;;;-3.06;100.00;95124.12;108781;1273;22536;-80
2023/12/02 10:35:03;;;;;;;;;;;;;;;-3.05;100.00;95104.91;108887;1267;22758;-81
2023/12/02 10:37:37;;;;;;;45.10;25.70;;;;;;;-3.06;99.97;95101.73;108807;1273;22629;-80
2023/12/02 10:40:10;;;;;;;35.80;23.60;;;;;;;-3.06;99.95;95107.84;108756;1273;22680;-80
2023/12/02 10:42:49;;;;;;;40.60;24.70;;;;;;;-3.07;100.00;95107.15;108829;1273;25950;-81
2023/12/02 10:45:21;;;;;;;34.60;23.20;;;;;;;-3.09;99.97;95107.33;108810;1273;25337;-81
2023/12/02 10:47:53;;;;;;;34.50;23.60;;;;;;;-3.09;99.84;95101.88;108730;1267;22539;-81
2023/12/02 10:50:25;;;;;;;43.30;25.90;;;;;;;-3.09;99.96;95106.75;108746;1273;22527;-81
2023/12/02 10:53:01;;;;;;;38.70;25.00;;;;;;;-3.07;100.00;95090.83;108759;1273;22527;-81
2023/12/02 10:55:34;;;;;;;39.70;24.60;;;;;;;-3.06;100.00;95091.58;108786;1273;22519;-81
2023/12/02 10:58:05;;;;;;;37.80;25.60;;;;;;;-3.05;100.00;95093.04;108746;1273;31224;-81
2023/12/02 11:00:39;;;;;;;38.10;24.20;;;;;;;-3.04;99.93;95091.40;108738;1267;22527;-81
2023/12/02 11:03:19;;;;;;;33.60;23.30;;;;;;;-3.03;99.98;95085.80;108751;1273;22534;-80
2023/12/02 11:06:05;;;;;;;34.80;23.30;;;;;;;-3.02;100.00;95085.02;108750;1267;25131;-81
2023/12/02 11:08:48;;;;;;;36.90;24.60;;;;;;;-3.00;99.99;95084.69;108775;1267;22517;-81
2023/12/02 11:11:32;;;;;;;36.10;23.00;;;;;;;-3.00;99.97;95086.13;108845;1251;22644;-81
2023/12/02 11:14:08;;;;;;;30.60;20.90;;;;;;;-3.00;99.98;95085.92;108768;1270;27259;-81
2023/12/02 11:16:45;;;;;;;32.30;21.20;;;;;;;-2.95;99.98;95089.95;108769;1270;22572;-81
2023/12/02 11:19:36;;;;;;;32.70;22.90;;;;;;;-2.92;99.98;95092.61;108749;1273;22513;-81